La Reforma, Texas
Current Conditions -  °F | °C
As of 8:35 AM on Friday 24 Oct 2014 (Local Time) from KEBG Reporting Station
Haze Haze  
Wind Chill: 66°   Ceiling: Unl
Heat Index: 66°   Visibility: 4mi
Dew Point: 63°   Wind: 3mph
Humidity: 92%   Direction: 10°N
Pressure: 30.13"   Gusts: NA
Location:  26.6829°N, 98.4118°W
Report Text: KEBG 241335Z AUTO 01003KT 4SM BR CLR 19/17 A3013 RMK AO2 T01870174
Loading
Personal Weather Stations






























Interactive Weather Map
Tropical Storm Tracking
New forecast layout! Learn more

10-Day Weather Forecast

Advertisements
Track Severe Weather on mobile